Dennis Port, MA (02639)

2:34 AM EST on November 23, 2014 (GMT -0500)
West Harwich | Change Station
CLOSE
Current Station
Personal Weather Station
Location: Harwich, MA
Elevation: 26 ft
Nearby Weather Stations

Elev 26 ft 41.66 °N, 70.12 °W | Updated 30 seconds ago

Overcast
Overcast
47.2 °F
Feels Like 47 °F
N
3.0
Wind Variable Wind from WSW
Gusts 11.0 mph

Today
High -- | Low -- °F
--% Chance of Precip.
Yesterday
High -- | Low -- °F
Precip. -- in
6:39 AM 4:14 PM
New Moon, 1% visible
Pressure 30.10 in
Visibility 10.0 miles
Clouds Mostly Cloudy 8000 ft
Overcast 9500 ft
Windchill 47 °F
Dew Point 39 °F
Humidity 74%
Rainfall 0.02 in
Snow Depth Not available.
UV 0 out of 12
Pollen .10 out of 12
Air Quality Not available.
Flu Activity Not available.
METAR KHYA 230656Z 23016KT 10SM BKN080 OVC095 09/01 A3010 RMK AO2 PK WND 22028/0613 RAB37E46 SLP193 P0000 T00940006

More Conditions Fewer Conditions

Pressure 30.10 in
Visibility 10.0 miles
Clouds Mostly Cloudy 8000 ft
Overcast 9500 ft
Windchill 47 °F
Dew Point 39 °F
Humidity 74%
Rainfall 0.02 in
Snow Depth Not available.
UV 0 out of 12
Pollen .10 out of 12
Air Quality Not available.
Flu Activity Not available.
METAR KHYA 230656Z 23016KT 10SM BKN080 OVC095 09/01 A3010 RMK AO2 PK WND 22028/0613 RAB37E46 SLP193 P0000 T00940006

More Conditions Fewer Conditions

10-Day Weather Forecast

Almanac

Astronomy

Nov. 23, 2014 Rise Set
Actual Time
Civil Twilight
Nautical Twilight
Astronomical Twilight
Moon
Length of Visible Light
Length of Day
Tomorrow will be .
, % of the Moon is Illuminated

Today's Extremes

State Highs State Lows

Community

WunderPhotos

Upload Photos

1,773,024 photos uploaded!

WunderBlogs® & News

Nearby

Air Quality

  Air Quality AQ Index Pollutant
Not available.

Snow Depth

Station Depth Elevation

Earthquake Activity

City Distance Mag. Time & Date
Minimum magnitude displayed is 2.5.

Coastal Water Temperatures

Place Temperature

Nearby Weather Stations